createdAt,value
2019-05-01T00:00:58.728Z,91.00
2019-05-01T00:05:05.031Z,91.10
2019-05-01T00:09:10.836Z,91.20
2019-05-01T00:13:13.242Z,91.10
2019-05-01T00:17:15.363Z,91.20
2019-05-01T00:21:17.434Z,91.30
2019-05-01T00:25:19.332Z,91.30
2019-05-01T00:29:21.246Z,91.40
2019-05-01T00:33:23.129Z,91.50
2019-05-01T00:37:25.076Z,91.50
2019-05-01T00:41:26.957Z,91.60
2019-05-01T00:45:28.853Z,91.70
2019-05-01T00:49:31.785Z,91.70
2019-05-01T00:53:33.659Z,91.70
2019-05-01T00:57:38.161Z,91.90
2019-05-01T01:01:48.908Z,91.90
2019-05-01T01:05:50.809Z,92.00
2019-05-01T01:09:52.713Z,92.20
2019-05-01T01:13:54.608Z,92.30
2019-05-01T01:17:59.378Z,92.40
2019-05-01T01:22:01.337Z,92.30
2019-05-01T01:26:03.238Z,92.60
2019-05-01T01:30:08.632Z,92.50
2019-05-01T01:34:10.548Z,92.40
2019-05-01T01:38:13.741Z,92.40
2019-05-01T01:42:16.249Z,92.70
2019-05-01T01:46:18.159Z,92.60
2019-05-01T01:50:20.130Z,92.90
2019-05-01T01:54:22.146Z,92.80
2019-05-01T01:58:25.549Z,92.80
2019-05-01T02:02:38.129Z,92.70
2019-05-01T02:06:40.010Z,92.60
2019-05-01T02:10:43.202Z,92.70
2019-05-01T02:14:46.341Z,92.70
2019-05-01T02:18:48.240Z,93.10
2019-05-01T02:22:50.906Z,93.50
2019-05-01T02:26:55.995Z,93.30
2019-05-01T02:31:27.316Z,93.30
2019-05-01T02:35:20.496Z,93.30
2019-05-01T02:39:23.607Z,93.70
2019-05-01T02:43:30.061Z,93.70
2019-05-01T02:47:36.265Z,93.70
2019-05-01T02:51:42.480Z,93.80
2019-05-01T02:56:03.079Z,93.70
2019-05-01T03:00:07.163Z,93.80
2019-05-01T03:04:11.274Z,93.90
2019-05-01T03:08:13.336Z,93.90
2019-05-01T03:12:17.350Z,94.00
2019-05-01T03:16:21.163Z,94.10
2019-05-01T03:20:43.121Z,94.30
2019-05-01T03:24:45.092Z,94.40
2019-05-01T03:28:47.634Z,94.20
2019-05-01T03:32:49.596Z,94.10
2019-05-01T03:37:04.859Z,94.20
2019-05-01T03:41:07.297Z,94.30
2019-05-01T03:45:09.433Z,94.50
2019-05-01T03:49:11.879Z,94.50
2019-05-01T03:53:14.483Z,94.50
2019-05-01T03:57:16.819Z,94.90
2019-05-01T04:01:25.101Z,94.70
2019-05-01T04:05:27.346Z,94.60
2019-05-01T04:09:29.371Z,94.90
2019-05-01T04:13:32.609Z,94.90
2019-05-01T04:17:36.783Z,94.90
2019-05-01T04:21:40.581Z,94.90
2019-05-01T04:25:43.387Z,95.00
2019-05-01T04:29:47.087Z,95.00
2019-05-01T04:33:53.319Z,95.20
2019-05-01T04:37:58.952Z,95.30
2019-05-01T04:42:01.367Z,95.30
2019-05-01T04:46:03.751Z,95.50
2019-05-01T04:50:07.647Z,95.50
2019-05-01T04:54:09.880Z,95.60
2019-05-01T04:58:11.833Z,95.10
2019-05-01T05:02:15.440Z,95.50
2019-05-01T05:06:18.467Z,95.30
2019-05-01T05:10:20.764Z,95.30
2019-05-01T05:14:24.911Z,95.70
2019-05-01T05:18:27.341Z,95.40
2019-05-01T05:22:30.481Z,95.10
2019-05-01T05:26:33.127Z,95.30
2019-05-01T05:30:36.724Z,95.70
2019-05-01T05:34:41.396Z,95.60
2019-05-01T05:38:50.306Z,95.60
2019-05-01T05:42:52.626Z,95.20
2019-05-01T05:46:54.850Z,95.30
2019-05-01T05:51:14.412Z,95.10
2019-05-01T05:55:34.008Z,94.40
2019-05-01T05:59:41.981Z,94.60
2019-05-01T06:03:47.066Z,95.10
2019-05-01T06:08:13.477Z,94.50
2019-05-01T06:12:18.439Z,94.80
2019-05-01T06:16:32.950Z,95.00
2019-05-01T06:20:37.646Z,95.10
2019-05-01T06:24:56.627Z,93.80
2019-05-01T06:29:00.671Z,93.70
2019-05-01T06:33:04.178Z,93.10
2019-05-01T06:37:07.685Z,93.00
2019-05-01T06:41:09.930Z,93.00
2019-05-01T06:45:16.797Z,93.70
2019-05-01T06:49:37.420Z,93.70
2019-05-01T06:53:40.217Z,91.90
2019-05-01T06:57:45.493Z,91.40
2019-05-01T07:01:48.545Z,90.90
2019-05-01T07:05:54.256Z,91.30
2019-05-01T07:09:58.023Z,91.50
2019-05-01T07:14:01.448Z,91.20
2019-05-01T07:18:05.143Z,90.30
2019-05-01T07:22:07.473Z,90.80
2019-05-01T07:26:13.670Z,90.30
2019-05-01T07:30:28.591Z,88.80
2019-05-01T07:34:30.574Z,88.30
2019-05-01T07:38:38.288Z,86.30
2019-05-01T07:42:43.678Z,84.90
2019-05-01T07:46:48.800Z,82.90
2019-05-01T07:50:50.113Z,83.50
2019-05-01T07:54:53.735Z,81.30
2019-05-01T07:58:55.838Z,81.00
2019-05-01T08:02:57.917Z,80.80
2019-05-01T08:06:59.838Z,79.20
2019-05-01T08:11:05.346Z,77.50
2019-05-01T08:15:07.302Z,75.80
2019-05-01T08:19:10.864Z,75.40
2019-05-01T08:23:13.727Z,73.40
2019-05-01T08:27:20.234Z,74.10
2019-05-01T08:31:27.887Z,72.20
2019-05-01T08:35:31.734Z,72.20
2019-05-01T08:39:33.513Z,69.40
2019-05-01T08:43:36.485Z,68.20
2019-05-01T08:47:40.131Z,68.50
2019-05-01T08:51:42.043Z,69.00
2019-05-01T08:55:45.178Z,67.20
2019-05-01T08:59:47.595Z,66.50
2019-05-01T09:03:53.711Z,65.30
2019-05-01T09:07:56.116Z,65.00
2019-05-01T09:11:56.761Z,62.60
2019-05-01T09:15:58.708Z,63.90
2019-05-01T09:20:00.701Z,59.50
2019-05-01T09:24:02.761Z,61.90
2019-05-01T09:28:12.905Z,61.10
2019-05-01T09:32:14.876Z,59.90
2019-05-01T09:36:16.874Z,61.50
2019-05-01T09:40:19.374Z,56.90
2019-05-01T09:44:21.303Z,56.60
2019-05-01T09:48:23.684Z,58.00
2019-05-01T09:52:43.421Z,57.50
2019-05-01T09:56:45.412Z,59.40
2019-05-01T10:00:48.806Z,59.80
2019-05-01T10:04:51.258Z,61.50
2019-05-01T10:08:53.479Z,60.70
2019-05-01T10:13:08.229Z,61.90
2019-05-01T10:17:13.488Z,63.00
2019-05-01T10:21:14.871Z,63.40
2019-05-01T10:25:16.784Z,65.20
2019-05-01T10:29:25.752Z,64.50
2019-05-01T10:33:29.065Z,63.70
2019-05-01T10:37:33.851Z,66.00
2019-05-01T10:41:34.352Z,64.70
2019-05-01T10:45:36.266Z,63.10
2019-05-01T10:49:39.178Z,63.10
2019-05-01T10:53:43.222Z,62.20
2019-05-01T10:57:44.784Z,61.60
2019-05-01T11:01:51.099Z,59.20
2019-05-01T11:05:56.197Z,57.30
2019-05-01T11:09:56.869Z,57.60
2019-05-01T11:13:58.780Z,56.20
2019-05-01T11:18:00.721Z,53.90
2019-05-01T11:22:02.644Z,52.10
2019-05-01T11:26:04.608Z,53.00
2019-05-01T11:30:08.783Z,52.00
2019-05-01T11:34:18.231Z,52.00
2019-05-01T11:38:28.659Z,50.40
2019-05-01T11:42:30.584Z,52.00
2019-05-01T11:46:32.519Z,49.80
2019-05-01T11:50:34.458Z,49.70
2019-05-01T11:54:36.387Z,50.00
2019-05-01T11:58:38.302Z,50.00
2019-05-01T12:02:40.293Z,48.00
2019-05-01T12:06:42.221Z,49.20
2019-05-01T12:10:46.465Z,47.50
2019-05-01T12:14:48.407Z,46.00
2019-05-01T12:18:50.356Z,44.60
2019-05-01T12:22:52.270Z,45.50
2019-05-01T12:26:54.214Z,43.40
2019-05-01T12:30:56.205Z,46.20
2019-05-01T12:34:58.184Z,47.80
2019-05-01T12:39:00.174Z,47.40
2019-05-01T12:43:03.305Z,47.50
2019-05-01T12:47:23.188Z,47.70
2019-05-01T12:51:25.499Z,49.00
2019-05-01T12:55:45.624Z,46.60
2019-05-01T12:59:47.548Z,47.00
2019-05-01T13:03:50.545Z,45.70
2019-05-01T13:07:53.398Z,45.80
2019-05-01T13:11:55.570Z,46.10
2019-05-01T13:15:58.760Z,43.70
2019-05-01T13:20:00.670Z,45.50
2019-05-01T13:24:02.597Z,46.30
2019-05-01T13:28:22.425Z,44.50
2019-05-01T13:32:28.674Z,42.30
2019-05-01T13:36:30.570Z,42.80
2019-05-01T13:40:32.783Z,41.50
2019-05-01T13:44:34.695Z,42.90
2019-05-01T13:48:36.623Z,40.80
2019-05-01T13:52:38.553Z,40.00
2019-05-01T13:56:40.538Z,41.50
2019-05-01T14:00:42.520Z,38.50
2019-05-01T14:04:44.488Z,37.00
2019-05-01T14:08:46.416Z,37.60
2019-05-01T14:12:48.326Z,38.80
2019-05-01T14:16:50.253Z,42.10
2019-05-01T14:20:51.932Z,40.10
2019-05-01T14:25:13.786Z,41.30
2019-05-01T14:29:15.704Z,42.20
2019-05-01T14:33:17.626Z,41.40
2019-05-01T14:37:29.479Z,40.50
2019-05-01T14:41:23.445Z,39.80
2019-05-01T14:45:25.426Z,39.20
2019-05-01T14:49:27.338Z,39.60
2019-05-01T14:53:29.248Z,41.50
2019-05-01T14:57:31.152Z,41.20
2019-05-01T15:01:33.539Z,41.30
2019-05-01T15:05:35.991Z,41.20
2019-05-01T15:09:37.910Z,40.80
2019-05-01T15:13:57.274Z,41.70
2019-05-01T15:18:16.917Z,42.00
2019-05-01T15:22:19.173Z,43.40
2019-05-01T15:26:21.144Z,44.20
2019-05-01T15:30:23.373Z,44.10
2019-05-01T15:34:25.280Z,44.20
2019-05-01T15:38:27.480Z,44.00
2019-05-01T15:42:34.017Z,44.40
2019-05-01T15:46:37.583Z,46.00
2019-05-01T15:50:42.298Z,44.80
2019-05-01T15:54:43.121Z,44.20
2019-05-01T15:58:45.050Z,41.60
2019-05-01T16:02:46.956Z,40.60
2019-05-01T16:06:48.879Z,40.80
2019-05-01T16:11:08.474Z,41.20
2019-05-01T16:15:13.451Z,42.10
2019-05-01T16:19:15.417Z,42.80
2019-05-01T16:23:17.357Z,43.40
2019-05-01T16:27:19.273Z,42.90
2019-05-01T16:31:21.196Z,41.80
2019-05-01T16:35:23.119Z,43.80
2019-05-01T16:39:27.638Z,45.00
2019-05-01T16:43:29.573Z,46.50
2019-05-01T16:47:32.615Z,46.80
2019-05-01T16:51:37.294Z,47.80
2019-05-01T16:55:39.721Z,49.80
2019-05-01T16:59:41.641Z,50.20
2019-05-01T17:03:54.329Z,51.20
2019-05-01T17:07:56.026Z,51.70
2019-05-01T17:11:58.383Z,51.70
2019-05-01T17:16:00.319Z,53.00
2019-05-01T17:20:02.216Z,53.70
2019-05-01T17:24:04.311Z,55.00
2019-05-01T17:28:08.304Z,55.20
2019-05-01T17:32:11.656Z,57.70
2019-05-01T17:36:13.578Z,57.60
2019-05-01T17:40:15.902Z,58.90
2019-05-01T17:44:20.240Z,62.50
2019-05-01T17:48:21.495Z,63.40
2019-05-01T17:52:23.464Z,63.70
2019-05-01T17:56:28.564Z,65.40
2019-05-01T18:00:34.621Z,66.20
2019-05-01T18:04:50.089Z,65.70
2019-05-01T18:09:02.460Z,66.70
2019-05-01T18:12:55.614Z,66.90
2019-05-01T18:16:57.596Z,68.90
2019-05-01T18:20:59.655Z,68.60
2019-05-01T18:25:01.819Z,68.60
2019-05-01T18:29:12.073Z,68.80
2019-05-01T18:33:13.985Z,68.60
2019-05-01T18:37:35.124Z,70.50
2019-05-01T18:41:37.742Z,71.00
2019-05-01T18:45:52.749Z,71.90
2019-05-01T18:49:54.747Z,73.00
2019-05-01T18:53:57.778Z,73.30
2019-05-01T18:58:00.774Z,73.80
2019-05-01T19:02:02.928Z,74.30
2019-05-01T19:06:04.986Z,75.20
2019-05-01T19:10:07.601Z,75.70
2019-05-01T19:14:09.757Z,76.40
2019-05-01T19:18:11.786Z,77.10
2019-05-01T19:22:14.336Z,77.60
2019-05-01T19:26:17.283Z,78.50
2019-05-01T19:30:19.787Z,79.30
2019-05-01T19:34:21.706Z,79.90
2019-05-01T19:38:24.259Z,80.20
2019-05-01T19:42:26.162Z,80.80
2019-05-01T19:46:28.091Z,81.10
2019-05-01T19:50:30.340Z,81.80
2019-05-01T19:54:32.900Z,82.10
2019-05-01T19:58:34.819Z,82.20
2019-05-01T20:02:36.753Z,82.80
2019-05-01T20:06:40.204Z,83.60
2019-05-01T20:10:43.107Z,84.40
2019-05-01T20:14:45.030Z,84.50
2019-05-01T20:18:47.028Z,85.00
2019-05-01T20:22:52.987Z,85.10
2019-05-01T20:26:53.827Z,85.40
2019-05-01T20:30:56.807Z,86.50
2019-05-01T20:34:59.503Z,86.80
2019-05-01T20:39:01.894Z,86.80
2019-05-01T20:43:07.161Z,87.50
2019-05-01T20:47:09.295Z,88.00
2019-05-01T20:51:11.278Z,88.40
2019-05-01T20:55:13.722Z,88.70
2019-05-01T20:59:15.886Z,88.60
2019-05-01T21:03:18.255Z,88.90
2019-05-01T21:07:31.972Z,89.60
2019-05-01T21:11:36.354Z,90.00
2019-05-01T21:15:38.245Z,90.10
2019-05-01T21:19:40.586Z,90.20
2019-05-01T21:23:43.547Z,90.30
2019-05-01T21:27:47.396Z,90.70
2019-05-01T21:31:49.284Z,90.60
2019-05-01T21:35:53.243Z,90.60
2019-05-01T21:39:54.804Z,90.80
2019-05-01T21:43:56.707Z,91.00
2019-05-01T21:47:58.606Z,90.80
2019-05-01T21:52:00.508Z,90.80
2019-05-01T21:56:06.155Z,90.70
2019-05-01T22:00:09.274Z,91.00
2019-05-01T22:04:12.839Z,91.00
2019-05-01T22:08:14.768Z,90.80
2019-05-01T22:12:16.885Z,91.20
2019-05-01T22:16:26.424Z,91.30
2019-05-01T22:20:29.951Z,91.60
2019-05-01T22:24:34.740Z,91.50
2019-05-01T22:28:44.158Z,92.10
2019-05-01T22:32:53.669Z,92.20
2019-05-01T22:36:55.577Z,92.70
2019-05-01T22:41:06.057Z,93.00
2019-05-01T22:45:02.765Z,93.20
2019-05-01T22:49:05.449Z,93.50
2019-05-01T22:53:08.037Z,93.30
2019-05-01T22:57:11.044Z,93.50
2019-05-01T23:01:18.130Z,93.10
2019-05-01T23:05:18.653Z,93.10
2019-05-01T23:09:23.556Z,93.10
2019-05-01T23:13:25.912Z,93.00
2019-05-01T23:17:29.459Z,93.10
2019-05-01T23:21:31.364Z,93.40
2019-05-01T23:25:36.634Z,93.50
2019-05-01T23:29:36.867Z,93.50
2019-05-01T23:33:38.758Z,94.20
2019-05-01T23:37:40.669Z,93.80
2019-05-01T23:41:47.102Z,93.90
2019-05-01T23:45:46.174Z,94.00
2019-05-01T23:49:52.572Z,93.80
2019-05-01T23:53:51.781Z,93.90
2019-05-01T23:57:53.664Z,93.70
